createdAt,value
2022-09-27T00:01:02.562Z,12.10
2022-09-27T00:03:31.147Z,12.20
2022-09-27T00:06:05.434Z,12.20
2022-09-27T00:08:34.271Z,12.20
2022-09-27T00:11:05.518Z,12.30
2022-09-27T00:13:34.067Z,12.30
2022-09-27T00:16:05.500Z,12.30
2022-09-27T00:18:35.247Z,12.30
2022-09-27T00:21:08.236Z,12.30
2022-09-27T00:23:37.361Z,12.30
2022-09-27T00:26:09.330Z,12.40
2022-09-27T00:28:37.523Z,12.30
2022-09-27T00:31:06.236Z,12.30
2022-09-27T00:33:34.463Z,12.40
2022-09-27T00:36:06.576Z,12.40
2022-09-27T00:38:34.742Z,12.40
2022-09-27T00:41:02.957Z,12.40
2022-09-27T00:43:47.583Z,12.50
2022-09-27T00:46:20.610Z,12.40
2022-09-27T00:48:50.625Z,12.40
2022-09-27T00:51:19.006Z,12.40
2022-09-27T00:53:51.869Z,12.40
2022-09-27T00:56:25.446Z,12.40
2022-09-27T00:59:00.679Z,12.40
2022-09-27T01:01:30.549Z,12.40
2022-09-27T01:04:04.194Z,12.40
2022-09-27T01:06:32.746Z,12.30
2022-09-27T01:09:00.900Z,12.30
2022-09-27T01:11:41.506Z,12.20
2022-09-27T01:14:43.485Z,12.20
2022-09-27T01:17:25.575Z,12.20
2022-09-27T01:20:33.244Z,12.10
2022-09-27T01:23:21.662Z,12.10
2022-09-27T01:26:05.876Z,12.00
2022-09-27T01:28:52.336Z,12.00
2022-09-27T01:31:33.302Z,12.00
2022-09-27T01:34:05.942Z,12.00
2022-09-27T01:36:44.410Z,11.90
2022-09-27T01:39:26.489Z,11.90
2022-09-27T01:42:22.407Z,11.90
2022-09-27T01:45:02.233Z,11.80
2022-09-27T01:47:43.240Z,11.80
2022-09-27T01:50:35.294Z,11.80
2022-09-27T01:53:07.657Z,11.80
2022-09-27T01:55:48.049Z,11.70
2022-09-27T01:58:39.225Z,11.70
2022-09-27T02:01:10.758Z,11.80
2022-09-27T02:03:44.695Z,11.80
2022-09-27T02:06:37.423Z,11.80
2022-09-27T02:09:19.086Z,11.80
2022-09-27T02:12:05.838Z,11.90
2022-09-27T02:14:39.094Z,12.00
2022-09-27T02:17:13.949Z,12.00
2022-09-27T02:19:53.594Z,12.10
2022-09-27T02:22:35.045Z,12.10
2022-09-27T02:25:12.029Z,12.10
2022-09-27T02:27:48.242Z,12.10
2022-09-27T02:30:17.704Z,12.10
2022-09-27T02:32:48.778Z,12.00
2022-09-27T02:35:21.930Z,12.00
2022-09-27T02:37:50.558Z,12.00
2022-09-27T02:40:20.295Z,12.00
2022-09-27T02:42:48.646Z,12.00
2022-09-27T02:45:18.623Z,12.00
2022-09-27T02:48:08.619Z,12.00
2022-09-27T02:50:58.372Z,12.00
2022-09-27T02:53:51.338Z,12.00
2022-09-27T02:56:52.665Z,11.90
2022-09-27T02:59:49.703Z,11.90
2022-09-27T03:02:42.556Z,12.00
2022-09-27T03:05:36.137Z,12.00
2022-09-27T03:08:06.247Z,12.00
2022-09-27T03:10:34.474Z,12.00
2022-09-27T03:13:04.434Z,11.90
2022-09-27T03:15:33.978Z,11.90
2022-09-27T03:18:02.863Z,11.90
2022-09-27T03:20:49.574Z,11.90
2022-09-27T03:23:22.830Z,11.90
2022-09-27T03:25:51.779Z,11.80
2022-09-27T03:28:20.556Z,11.80
2022-09-27T03:30:49.937Z,11.80
2022-09-27T03:33:38.081Z,11.80
2022-09-27T03:36:13.102Z,11.70
2022-09-27T03:38:42.799Z,11.70
2022-09-27T03:41:14.562Z,11.60
2022-09-27T03:43:44.285Z,11.60
2022-09-27T03:46:12.509Z,11.60
2022-09-27T03:48:42.622Z,11.60
2022-09-27T03:51:12.719Z,11.60
2022-09-27T03:53:43.055Z,11.60
2022-09-27T03:56:11.817Z,11.70
2022-09-27T03:58:40.454Z,11.70
2022-09-27T04:01:09.169Z,11.70
2022-09-27T04:03:38.944Z,11.70
2022-09-27T04:06:27.114Z,11.70
2022-09-27T04:08:57.276Z,11.80
2022-09-27T04:11:33.623Z,11.80
2022-09-27T04:14:02.004Z,11.70
2022-09-27T04:16:32.731Z,11.80
2022-09-27T04:19:19.686Z,11.80
2022-09-27T04:22:10.957Z,11.70
2022-09-27T04:24:40.912Z,11.80
2022-09-27T04:27:22.555Z,11.70
2022-09-27T04:29:52.707Z,11.80
2022-09-27T04:32:53.528Z,11.80
2022-09-27T04:35:57.737Z,11.70
2022-09-27T04:38:26.134Z,11.60
2022-09-27T04:40:55.933Z,11.50
2022-09-27T04:43:24.897Z,11.40
2022-09-27T04:45:53.634Z,11.30
2022-09-27T04:48:22.238Z,11.30
2022-09-27T04:50:58.132Z,11.20
2022-09-27T04:53:27.183Z,11.10
2022-09-27T04:55:57.326Z,11.00
2022-09-27T04:58:26.421Z,11.00
2022-09-27T05:00:55.720Z,10.90
2022-09-27T05:03:45.085Z,10.90
2022-09-27T05:06:15.498Z,10.90
2022-09-27T05:08:45.551Z,10.90
2022-09-27T05:11:22.364Z,10.80
2022-09-27T05:14:29.038Z,10.80
2022-09-27T05:17:09.987Z,10.80
2022-09-27T05:19:49.132Z,10.80
2022-09-27T05:22:28.144Z,10.80
2022-09-27T05:24:56.648Z,10.80
2022-09-27T05:27:27.596Z,10.80
2022-09-27T05:29:56.963Z,10.80
2022-09-27T05:32:34.518Z,10.80
2022-09-27T05:35:21.743Z,10.80
2022-09-27T05:37:53.335Z,10.80
2022-09-27T05:40:40.222Z,10.90
2022-09-27T05:43:11.617Z,11.00
2022-09-27T05:45:40.118Z,11.10
2022-09-27T05:48:09.081Z,11.10
2022-09-27T05:50:46.712Z,11.10
2022-09-27T05:53:15.069Z,11.20
2022-09-27T05:55:44.000Z,11.20
2022-09-27T05:58:17.348Z,11.20
2022-09-27T06:00:50.105Z,11.30
2022-09-27T06:03:41.322Z,11.30
2022-09-27T06:06:41.206Z,11.40
2022-09-27T06:09:11.842Z,11.40
2022-09-27T06:11:43.062Z,11.40
2022-09-27T06:14:16.027Z,11.40
2022-09-27T06:17:07.128Z,11.40
2022-09-27T06:19:37.330Z,11.40
2022-09-27T06:22:05.657Z,11.40
2022-09-27T06:24:42.663Z,11.40
2022-09-27T06:27:18.981Z,11.40
2022-09-27T06:29:54.042Z,11.40
2022-09-27T06:32:37.061Z,11.40
2022-09-27T06:35:31.143Z,11.40
2022-09-27T06:37:59.647Z,11.40
2022-09-27T06:40:28.481Z,11.50
2022-09-27T06:43:11.767Z,11.50
2022-09-27T06:46:04.761Z,11.70
2022-09-27T06:48:53.029Z,11.80
2022-09-27T06:51:22.909Z,11.80
2022-09-27T06:53:51.166Z,11.90
2022-09-27T06:56:19.749Z,12.00
2022-09-27T06:59:10.916Z,12.10
2022-09-27T07:01:47.059Z,12.20
2022-09-27T07:04:35.423Z,12.30
2022-09-27T07:07:18.097Z,12.50
2022-09-27T07:09:47.790Z,12.50
2022-09-27T07:12:16.204Z,12.40
2022-09-27T07:14:44.637Z,12.30
2022-09-27T07:17:17.586Z,12.10
2022-09-27T07:19:48.359Z,11.80
2022-09-27T07:22:16.810Z,11.50
2022-09-27T07:24:50.607Z,11.30
2022-09-27T07:27:19.416Z,11.10
2022-09-27T07:29:52.276Z,11.00
2022-09-27T07:32:21.972Z,10.90
2022-09-27T07:34:50.398Z,10.90
2022-09-27T07:37:18.793Z,10.90
2022-09-27T07:39:48.454Z,11.00
2022-09-27T07:42:16.956Z,11.00
2022-09-27T07:44:49.446Z,11.20
2022-09-27T07:47:43.997Z,11.30
2022-09-27T07:50:20.976Z,11.40
2022-09-27T07:53:01.818Z,11.40
2022-09-27T07:55:35.619Z,11.50
2022-09-27T07:58:11.623Z,11.60
2022-09-27T08:00:41.377Z,11.70
2022-09-27T08:03:16.163Z,11.80
2022-09-27T08:05:45.639Z,12.00
2022-09-27T08:08:14.307Z,12.10
2022-09-27T08:10:44.482Z,12.30
2022-09-27T08:13:14.663Z,12.40
2022-09-27T08:15:43.036Z,12.60
2022-09-27T08:18:12.999Z,12.80
2022-09-27T08:21:05.244Z,12.90
2022-09-27T08:23:43.577Z,13.00
2022-09-27T08:26:35.046Z,13.20
2022-09-27T08:29:12.757Z,13.30
2022-09-27T08:31:45.244Z,13.50
2022-09-27T08:34:15.264Z,13.60
2022-09-27T08:36:44.477Z,13.70
2022-09-27T08:39:13.110Z,13.70
2022-09-27T08:41:56.419Z,13.80
2022-09-27T08:44:35.401Z,13.80
2022-09-27T08:47:15.867Z,13.90
2022-09-27T08:49:52.903Z,13.90
2022-09-27T08:52:28.322Z,13.90
2022-09-27T08:55:04.027Z,14.00
2022-09-27T08:57:32.269Z,14.10
2022-09-27T09:00:07.210Z,14.10
2022-09-27T09:02:37.331Z,14.10
2022-09-27T09:05:13.237Z,14.10
2022-09-27T09:08:02.530Z,14.10
2022-09-27T09:11:00.544Z,14.20
2022-09-27T09:13:46.077Z,14.20
2022-09-27T09:16:24.494Z,14.20
2022-09-27T09:19:11.334Z,14.20
2022-09-27T09:22:13.521Z,14.20
2022-09-27T09:24:58.405Z,14.20
2022-09-27T09:27:35.352Z,14.20
2022-09-27T09:30:25.360Z,14.40
2022-09-27T09:33:15.938Z,14.60
2022-09-27T09:35:50.742Z,14.70
2022-09-27T09:38:26.502Z,14.90
2022-09-27T09:40:59.709Z,14.90
2022-09-27T09:43:34.733Z,14.90
2022-09-27T09:46:10.963Z,14.80
2022-09-27T09:48:46.626Z,14.80
2022-09-27T09:51:22.565Z,14.50
2022-09-27T09:53:58.370Z,14.30
2022-09-27T09:56:35.313Z,14.10
2022-09-27T09:59:10.220Z,13.90
2022-09-27T10:01:44.077Z,13.70
2022-09-27T10:04:19.942Z,13.50
2022-09-27T10:06:48.719Z,13.30
2022-09-27T10:09:23.802Z,13.10
2022-09-27T10:12:28.185Z,12.90
2022-09-27T10:14:59.960Z,12.60
2022-09-27T10:17:36.250Z,12.50
2022-09-27T10:20:07.407Z,12.50
2022-09-27T10:22:38.795Z,12.50
2022-09-27T10:25:19.720Z,12.50
2022-09-27T10:27:57.445Z,12.60
2022-09-27T10:30:35.029Z,12.80
2022-09-27T10:33:19.210Z,12.90
2022-09-27T10:36:03.147Z,13.00
2022-09-27T10:38:38.070Z,13.00
2022-09-27T10:41:25.974Z,13.10
2022-09-27T10:44:22.041Z,13.00
2022-09-27T10:47:02.222Z,13.10
2022-09-27T10:49:43.119Z,13.10
2022-09-27T10:52:26.331Z,13.20
2022-09-27T10:54:56.931Z,13.10
2022-09-27T10:57:28.929Z,13.10
2022-09-27T11:00:00.552Z,13.20
2022-09-27T11:02:31.018Z,13.20
2022-09-27T11:05:15.547Z,13.20
2022-09-27T11:07:52.797Z,13.10
2022-09-27T11:10:29.954Z,13.10
2022-09-27T11:13:25.401Z,13.00
2022-09-27T11:16:11.873Z,12.90
2022-09-27T11:18:50.488Z,12.90
2022-09-27T11:21:29.649Z,12.90
2022-09-27T11:24:11.006Z,12.90
2022-09-27T11:26:52.423Z,12.90
2022-09-27T11:29:36.706Z,12.80
2022-09-27T11:32:32.967Z,12.80
2022-09-27T11:35:13.555Z,12.70
2022-09-27T11:37:52.042Z,12.60
2022-09-27T11:40:31.785Z,12.70
2022-09-27T11:43:14.524Z,12.80
2022-09-27T11:49:07.962Z,12.90
2022-09-27T11:52:03.065Z,13.20
2022-09-27T11:54:59.754Z,13.50
2022-09-27T11:57:33.257Z,13.80
2022-09-27T12:00:13.372Z,14.10
2022-09-27T12:03:09.861Z,14.30
2022-09-27T12:05:57.711Z,14.50
2022-09-27T12:08:43.000Z,14.60
2022-09-27T12:11:19.626Z,14.60
2022-09-27T12:13:53.827Z,14.60
2022-09-27T12:16:24.185Z,14.70
2022-09-27T12:18:55.157Z,14.80
2022-09-27T12:21:54.067Z,15.10
2022-09-27T12:24:25.781Z,15.40
2022-09-27T12:27:17.790Z,16.10
2022-09-27T12:29:47.836Z,17.30
2022-09-27T12:32:21.957Z,18.40
2022-09-27T12:34:57.926Z,19.10
2022-09-27T12:37:30.153Z,19.70
2022-09-27T12:40:04.535Z,20.50
2022-09-27T12:42:43.155Z,20.40
2022-09-27T12:45:31.705Z,20.00
2022-09-27T12:48:09.362Z,19.40
2022-09-27T12:50:45.787Z,19.00
2022-09-27T12:53:23.611Z,18.30
2022-09-27T12:56:15.975Z,17.70
2022-09-27T12:59:10.351Z,17.00
2022-09-27T13:02:02.144Z,16.40
2022-09-27T13:04:54.974Z,16.00
2022-09-27T13:07:40.840Z,15.70
2022-09-27T13:10:31.585Z,15.40
2022-09-27T13:13:06.194Z,15.00
2022-09-27T13:15:39.686Z,14.60
2022-09-27T13:18:35.154Z,14.00
2022-09-27T13:21:06.550Z,13.20
2022-09-27T13:23:54.196Z,12.90
2022-09-27T13:26:48.748Z,12.60
2022-09-27T13:29:34.514Z,12.70
2022-09-27T13:32:22.451Z,12.90
2022-09-27T13:35:19.993Z,13.30
2022-09-27T13:37:59.632Z,14.50
2022-09-27T13:40:42.934Z,15.80
2022-09-27T13:43:51.525Z,17.10
2022-09-27T13:46:29.028Z,18.20
2022-09-27T13:49:00.670Z,18.20
2022-09-27T13:51:50.420Z,17.60
2022-09-27T13:54:41.746Z,17.50
2022-09-27T13:57:47.608Z,18.20
2022-09-27T14:00:22.841Z,19.40
2022-09-27T14:03:02.618Z,20.40
2022-09-27T14:05:35.972Z,21.20
2022-09-27T14:08:08.345Z,21.40
2022-09-27T14:10:37.613Z,21.50
2022-09-27T14:13:08.231Z,21.50
2022-09-27T14:15:48.176Z,21.80
2022-09-27T14:18:17.005Z,22.20
2022-09-27T14:20:48.035Z,22.20
2022-09-27T14:23:32.478Z,21.90
2022-09-27T14:26:00.765Z,21.60
2022-09-27T14:28:41.538Z,21.80
2022-09-27T14:31:23.106Z,21.70
2022-09-27T14:34:08.925Z,20.80
2022-09-27T14:36:57.411Z,19.70
2022-09-27T14:39:32.444Z,18.80
2022-09-27T14:42:06.511Z,17.80
2022-09-27T14:44:36.624Z,17.20
2022-09-27T14:47:17.585Z,16.80
2022-09-27T14:49:50.183Z,16.10
2022-09-27T14:52:24.277Z,15.70
2022-09-27T14:55:01.282Z,15.40
2022-09-27T14:57:34.040Z,15.30
2022-09-27T15:00:19.098Z,14.90
2022-09-27T15:02:47.778Z,14.70
2022-09-27T15:05:18.096Z,14.50
2022-09-27T15:07:47.819Z,14.10
2022-09-27T15:10:18.246Z,13.60
2022-09-27T15:12:49.109Z,13.10
2022-09-27T15:15:23.722Z,12.70
2022-09-27T15:17:52.160Z,12.50
2022-09-27T15:20:24.673Z,12.40
2022-09-27T15:22:54.006Z,12.30
2022-09-27T15:25:32.324Z,12.20
2022-09-27T15:28:02.479Z,12.10
2022-09-27T15:30:37.002Z,12.10
2022-09-27T15:33:06.162Z,12.10
2022-09-27T15:35:36.400Z,12.00
2022-09-27T15:38:25.883Z,11.90
2022-09-27T15:41:07.249Z,11.90
2022-09-27T15:43:39.508Z,11.90
2022-09-27T15:46:28.322Z,11.80
2022-09-27T15:49:33.783Z,11.80
2022-09-27T15:52:03.310Z,11.80
2022-09-27T15:54:35.771Z,11.80
2022-09-27T15:57:06.846Z,11.80
2022-09-27T15:59:37.032Z,11.80
2022-09-27T16:02:16.277Z,11.80
2022-09-27T16:04:45.261Z,11.80
2022-09-27T16:07:15.307Z,11.70
2022-09-27T16:09:45.101Z,11.80
2022-09-27T16:12:16.540Z,11.70
2022-09-27T16:14:46.925Z,11.70
2022-09-27T16:17:16.514Z,11.80
2022-09-27T16:19:44.834Z,11.80
2022-09-27T16:22:12.963Z,11.80
2022-09-27T16:24:43.564Z,11.70
2022-09-27T16:27:11.919Z,11.60
2022-09-27T16:29:44.165Z,11.50
2022-09-27T16:32:12.618Z,11.40
2022-09-27T16:34:42.390Z,11.30
2022-09-27T16:37:11.232Z,11.30
2022-09-27T16:39:40.357Z,11.10
2022-09-27T16:42:09.979Z,11.10
2022-09-27T16:44:38.479Z,11.00
2022-09-27T16:47:07.577Z,11.00
2022-09-27T16:49:53.652Z,10.90
2022-09-27T16:52:23.353Z,10.90
2022-09-27T16:54:51.867Z,10.90
2022-09-27T16:57:20.261Z,10.80
2022-09-27T16:59:48.774Z,10.80
2022-09-27T17:02:18.268Z,10.70
2022-09-27T17:04:46.645Z,10.70
2022-09-27T17:07:15.029Z,10.70
2022-09-27T17:09:45.081Z,10.70
2022-09-27T17:12:15.821Z,10.70
2022-09-27T17:14:44.270Z,10.70
2022-09-27T17:17:12.899Z,10.70
2022-09-27T17:19:41.216Z,10.70
2022-09-27T17:22:09.759Z,10.70
2022-09-27T17:24:38.475Z,10.70
2022-09-27T17:27:08.272Z,10.70
2022-09-27T17:29:38.024Z,10.70
2022-09-27T17:32:09.050Z,10.70
2022-09-27T17:34:37.537Z,10.80
2022-09-27T17:37:05.949Z,10.80
2022-09-27T17:39:34.209Z,10.80
2022-09-27T17:42:02.845Z,10.80
2022-09-27T17:44:33.139Z,10.80
2022-09-27T17:47:19.624Z,10.80
2022-09-27T17:50:05.164Z,10.80
2022-09-27T17:52:34.477Z,10.70
2022-09-27T17:55:03.444Z,10.70
2022-09-27T17:57:31.835Z,10.70
2022-09-27T18:00:02.049Z,10.70
2022-09-27T18:02:30.465Z,10.70
2022-09-27T18:04:58.909Z,10.70
2022-09-27T18:07:27.509Z,10.70
2022-09-27T18:09:55.855Z,10.70
2022-09-27T18:12:31.813Z,10.70
2022-09-27T18:15:02.489Z,10.70
2022-09-27T18:17:31.211Z,10.70
2022-09-27T18:20:02.200Z,10.70
2022-09-27T18:22:31.396Z,10.70
2022-09-27T18:25:01.000Z,10.70
2022-09-27T18:27:29.813Z,10.70
2022-09-27T18:30:00.010Z,10.70
2022-09-27T18:32:29.552Z,10.70
2022-09-27T18:34:57.843Z,10.70
2022-09-27T18:37:26.978Z,10.70
2022-09-27T18:39:55.642Z,10.70
2022-09-27T18:42:24.081Z,10.70
2022-09-27T18:44:52.388Z,10.70
2022-09-27T18:47:20.808Z,10.70
2022-09-27T18:49:50.533Z,10.70
2022-09-27T18:52:18.762Z,10.70
2022-09-27T18:54:46.940Z,10.80
2022-09-27T18:57:15.140Z,10.80
2022-09-27T18:59:43.255Z,10.80
2022-09-27T19:02:12.063Z,10.80
2022-09-27T19:04:40.259Z,10.80
2022-09-27T19:07:09.816Z,10.90
2022-09-27T19:09:37.957Z,10.90
2022-09-27T19:12:06.350Z,10.90
2022-09-27T19:14:34.660Z,10.90
2022-09-27T19:17:02.838Z,10.90
2022-09-27T19:19:30.977Z,10.90
2022-09-27T19:21:59.147Z,10.90
2022-09-27T19:24:28.985Z,10.90
2022-09-27T19:26:57.290Z,11.00
2022-09-27T19:29:25.853Z,11.00
2022-09-27T19:31:54.014Z,11.00
2022-09-27T19:34:22.263Z,11.00
2022-09-27T19:36:50.740Z,11.00
2022-09-27T19:39:19.019Z,11.00
2022-09-27T19:41:48.789Z,11.00
2022-09-27T19:44:17.009Z,11.00
2022-09-27T19:46:48.643Z,11.00
2022-09-27T19:49:18.833Z,11.00
2022-09-27T19:51:47.194Z,11.00
2022-09-27T19:54:15.643Z,11.00
2022-09-27T19:56:43.870Z,11.00
2022-09-27T19:59:13.896Z,11.10
2022-09-27T20:01:42.672Z,11.10
2022-09-27T20:04:12.731Z,11.10
2022-09-27T20:06:41.016Z,11.10
2022-09-27T20:09:09.638Z,11.10
2022-09-27T20:11:37.890Z,11.20
2022-09-27T20:14:06.111Z,11.20
2022-09-27T20:16:41.117Z,11.20
2022-09-27T20:19:10.628Z,11.20
2022-09-27T20:21:38.966Z,11.10
2022-09-27T20:24:10.788Z,11.10
2022-09-27T20:26:39.134Z,11.10
2022-09-27T20:29:07.890Z,11.00
2022-09-27T20:31:55.605Z,11.00
2022-09-27T20:34:29.314Z,11.00
2022-09-27T20:36:57.597Z,11.00
2022-09-27T20:39:25.912Z,11.00
2022-09-27T20:41:54.021Z,11.00
2022-09-27T20:44:22.369Z,11.10
2022-09-27T20:46:51.999Z,11.10
2022-09-27T20:49:20.906Z,11.20
2022-09-27T20:51:51.135Z,11.20
2022-09-27T20:54:19.671Z,11.20
2022-09-27T20:56:49.115Z,11.20
2022-09-27T20:59:20.101Z,11.20
2022-09-27T21:01:52.681Z,11.20
2022-09-27T21:04:22.358Z,11.20
2022-09-27T21:06:50.890Z,11.20
2022-09-27T21:09:19.855Z,11.20
2022-09-27T21:11:51.686Z,11.20
2022-09-27T21:14:20.290Z,11.30
2022-09-27T21:16:49.464Z,11.30
2022-09-27T21:19:20.424Z,11.30
2022-09-27T21:21:52.398Z,11.30
2022-09-27T21:24:20.888Z,11.30
2022-09-27T21:26:49.310Z,11.30
2022-09-27T21:29:18.084Z,11.30
2022-09-27T21:31:46.696Z,11.40
2022-09-27T21:34:14.906Z,11.40
2022-09-27T21:36:44.900Z,11.40
2022-09-27T21:39:15.550Z,11.40
2022-09-27T21:41:43.710Z,11.50
2022-09-27T21:44:12.570Z,11.50
2022-09-27T21:46:43.309Z,11.50
2022-09-27T21:49:12.309Z,11.50
2022-09-27T21:51:42.235Z,11.60
2022-09-27T21:54:14.765Z,11.60
2022-09-27T21:56:44.758Z,11.60
2022-09-27T21:59:15.470Z,11.60
2022-09-27T22:01:46.156Z,11.60
2022-09-27T22:04:14.777Z,11.60
2022-09-27T22:06:43.634Z,11.60
2022-09-27T22:09:17.224Z,11.60
2022-09-27T22:11:47.872Z,11.70
2022-09-27T22:14:18.152Z,11.70
2022-09-27T22:16:46.586Z,11.70
2022-09-27T22:19:16.296Z,11.70
2022-09-27T22:21:44.932Z,11.70
2022-09-27T22:24:16.936Z,11.70
2022-09-27T22:26:48.437Z,11.70
2022-09-27T22:29:17.501Z,11.70
2022-09-27T22:31:46.404Z,11.80
2022-09-27T22:34:18.639Z,11.80
2022-09-27T22:36:47.501Z,11.80
2022-09-27T22:39:17.737Z,11.80
2022-09-27T22:41:45.966Z,11.80
2022-09-27T22:44:14.232Z,11.80
2022-09-27T22:46:42.673Z,11.80
2022-09-27T22:49:11.329Z,11.80
2022-09-27T22:51:39.491Z,11.80
2022-09-27T22:54:08.102Z,11.80
2022-09-27T22:56:37.734Z,11.80
2022-09-27T22:59:05.910Z,11.80
2022-09-27T23:01:36.779Z,11.80
2022-09-27T23:04:05.069Z,11.80
2022-09-27T23:06:33.435Z,11.80
2022-09-27T23:09:05.043Z,11.80
2022-09-27T23:11:33.244Z,11.90
2022-09-27T23:14:06.085Z,11.90
2022-09-27T23:16:35.172Z,11.90
2022-09-27T23:19:04.541Z,11.90
2022-09-27T23:21:32.818Z,11.90
2022-09-27T23:24:01.709Z,11.90
2022-09-27T23:26:30.315Z,11.90
2022-09-27T23:29:00.168Z,11.90
2022-09-27T23:31:31.780Z,11.90
2022-09-27T23:34:03.264Z,11.90
2022-09-27T23:36:31.706Z,11.90
2022-09-27T23:39:01.563Z,11.90
2022-09-27T23:41:30.082Z,12.00
2022-09-27T23:43:58.300Z,12.00
2022-09-27T23:46:26.594Z,12.00
2022-09-27T23:48:58.932Z,12.00
2022-09-27T23:51:27.252Z,11.90
2022-09-27T23:53:57.117Z,11.90
2022-09-27T23:56:25.513Z,11.90
2022-09-27T23:58:53.679Z,11.90
